Flight Track Log - Related Links

Times and Time Zones

All times are in EDT time to prevent confusion due to time zone crossing. See the SWA561 flight status page for this flight to view local times or setup timezone preferences in your user account.

Time Position Orientation Groundspeed Altitude Reporting Facility
EDT Latitude Longitude Course Direction KTS MPH feet Rate Location/Type
Mon 11:04:22 AM 34.9858 -106.5158 90° East 234 269 8,100  Level Albuquerque Center
Mon 11:05:24 AM 34.9192 -106.4717 151° Southeast 268 308 10,800 2,195 Climbing Albuquerque Center
Mon 11:06:25 AM 34.8711 -106.3947 127° Southeast 298 343 12,600 2,066 Climbing Albuquerque Center
Mon 11:07:26 AM 34.8317 -106.2892 114° Southeast 332 382 15,000 2,293 Climbing Albuquerque Center
Mon 11:08:28 AM 34.7850 -106.1833 118° Southeast 338 389 17,300 1,854 Climbing Albuquerque Center
Mon 11:09:00 AM 34.7500 -106.0804 90° East  Level FlightAware Approximate
Mon 11:09:29 AM 34.7633 -106.0661 103° East 355 409 18,800  Level Albuquerque Center
Mon 11:10:31 AM 34.7556 -105.9403 94° East 370 426 20,500 1,659 Climbing Albuquerque Center
Mon 11:11:32 AM 34.7453 -105.8097 95° East 379 436 22,200 1,770 Climbing Albuquerque Center
Mon 11:12:33 AM 34.7342 -105.6503 95° East 397 457 24,100 1,707 Climbing Albuquerque Center
Mon 11:13:35 AM 34.7233 -105.5108 95° East 407 468 25,700 1,512 Climbing Albuquerque Center
Mon 11:14:36 AM 34.7122 -105.3714 95° East 412 474 27,200 1,366 Climbing Albuquerque Center
Mon 11:15:38 AM 34.7014 -105.2281 95° East 419 482 28,500 1,171 Climbing Albuquerque Center
Mon 11:16:39 AM 34.6906 -105.0828 95° East 427 491 29,600 1,171 Climbing Albuquerque Center
Mon 11:17:41 AM 34.6789 -104.9353 95° East 433 498 30,900 1,220 Climbing Albuquerque Center
Mon 11:18:42 AM 34.6669 -104.7872 96° East 437 503 32,100 1,220 Climbing Albuquerque Center
Mon 11:19:44 AM 34.6553 -104.6400 95° East 437 503 33,400 1,220 Climbing Albuquerque Center
Mon 11:20:45 AM 34.6433 -104.4953 96° East 433 498 34,600 780 Climbing Albuquerque Center
Mon 11:21:47 AM 34.6314 -104.3508 96° East 429 494 35,000 195 Climbing Albuquerque Center
Mon 11:22:48 AM 34.6172 -104.1831 96° East 428 493 35,000  Level Albuquerque Center
Mon 11:23:50 AM 34.6047 -104.0381 96° East 429 494 35,000  Level Albuquerque Center
Mon 11:24:51 AM 34.5919 -103.8944 96° East 428 493 35,000  Level Albuquerque Center
Mon 11:25:53 AM 34.5794 -103.7525 96° East 424 488 35,000  Level Albuquerque Center
Mon 11:26:54 AM 34.5672 -103.6092 96° East 425 489 35,000  Level Albuquerque Center
Mon 11:27:56 AM 34.5544 -103.4678 96° East 421 484 35,000  Level Albuquerque Center
Mon 11:28:57 AM 34.5400 -103.3256 97° East 422 486 35,000  Level Albuquerque Center
Mon 11:29:59 AM 34.5269 -103.1828 96° East 422 486 35,000  Level Albuquerque Center
Mon 11:31:00 AM 34.5139 -103.0394 96° East 425 489 35,000  Level Albuquerque Center
Mon 11:32:02 AM 34.4978 -102.8725 97° East 425 489 35,000  Level Albuquerque Center
Mon 11:33:03 AM 34.4844 -102.7422 97° East 427 491 35,000  Level Albuquerque Center
Mon 11:34:05 AM 34.4683 -102.5986 98° East 428 493 35,000  Level Albuquerque Center
Mon 11:35:06 AM 34.4533 -102.4567 97° East 429 494 35,000  Level Albuquerque Center
Mon 11:36:08 AM 34.4364 -102.2878 97° East 427 491 35,000  Level Albuquerque Center
Mon 11:37:09 AM 34.4208 -102.1467 98° East 426 490 35,000  Level Albuquerque Center
Mon 11:38:11 AM 34.4078 -102.0072 96° East 423 487 35,000  Level Albuquerque Center
Mon 11:39:12 AM 34.3919 -101.8658 98° East 424 488 35,000  Level Albuquerque Center
Mon 11:40:14 AM 34.3758 -101.7242 98° East 426 490 35,000  Level Albuquerque Center
Mon 11:41:15 AM 34.3608 -101.5842 97° East 425 489 35,000  Level Albuquerque Center
Mon 11:42:17 AM 34.3458 -101.4442 97° East 424 488 35,000  Level Albuquerque Center
Mon 11:43:18 AM 34.3267 -101.2778 98° East 420 483 35,000  Level Albuquerque Center
Mon 11:44:20 AM 34.3111 -101.1378 98° East 421 484 35,000  Level Albuquerque Center
Mon 11:45:43 AM 34.2883 -100.9450 98° East 428 493 35,000  Level Fort Worth Center
Mon 11:46:43 AM 34.2714 -100.8036 98° East 428 493 35,000  Level Fort Worth Center
Mon 11:47:43 AM 34.2561 -100.6647 98° East 428 493 35,000  Level Fort Worth Center
Mon 11:48:43 AM 34.2222 -100.5256 106° East 428 493 35,000  Level Fort Worth Center
Mon 11:49:43 AM 34.1958 -100.4142 106° East 428 493 35,000  Level Fort Worth Center
Mon 11:50:43 AM 34.1575 -100.2647 107° East 428 493 35,000  Level Fort Worth Center
Mon 11:51:43 AM 34.1250 -100.1256 106° East 428 493 35,000  Level Fort Worth Center
Mon 11:52:43 AM 34.0925 -99.9917 106° East 423 487 35,000  Level Fort Worth Center
Mon 11:53:43 AM 34.0597 -99.8503 106° East 429 494 35,000  Level Fort Worth Center
Mon 11:54:43 AM 34.0250 -99.7114 107° East 429 494 35,000  Level Fort Worth Center
Mon 11:55:43 AM 33.9919 -99.5703 106° East 429 494 35,000  Level Fort Worth Center
Mon 11:56:43 AM 33.9525 -99.4242 108° East 423 487 35,000  Level Fort Worth Center
Mon 11:57:43 AM 33.9214 -99.2833 105° East 429 494 35,000  Level Fort Worth Center
Mon 11:58:43 AM 33.8858 -99.1447 107° East 429 494 35,000  Level Fort Worth Center
Mon 11:59:43 AM 33.8500 -99.0067 107° East 429 494 35,000 -300 Level Fort Worth Center
Mon 12:00:43 PM 33.8142 -98.8708 108° East 429 494 34,400 -1,250 Descending Fort Worth Center
Mon 12:01:43 PM 33.7844 -98.7406 105° East 423 487 32,500 -2,500 Descending Fort Worth Center
Mon 12:02:43 PM 33.7503 -98.6025 107° East 418 481 29,400 -2,950 Descending Fort Worth Center
Mon 12:03:43 PM 33.7389 -98.4625 96° East 423 487 26,600 -2,500 Descending Fort Worth Center
Mon 12:04:43 PM 33.7381 -98.3278 90° East 408 470 24,400 -2,150 Descending Fort Worth Center
Mon 12:05:43 PM 33.7367 -98.1928 91° East 396 456 22,300 -2,000 Descending Fort Worth Center
Mon 12:06:43 PM 33.7356 -98.0678 91° East 380 437 20,400 -1,150 Descending Fort Worth Center
Mon 12:07:43 PM 33.6881 -97.9578 117° Southeast 357 411 20,000 -1,250 Descending Fort Worth Center
Mon 12:08:43 PM 33.6425 -97.8625 120° Southeast 363 418 17,900 -2,100 Descending Fort Worth Center
Mon 12:09:43 PM 33.5906 -97.7550 120° Southeast 375 432 15,800 -2,600 Descending Fort Worth Center
Mon 12:10:43 PM 33.5303 -97.6353 121° Southeast 380 437 12,700 -2,250 Descending Fort Worth Center
Mon 12:11:43 PM 33.4803 -97.5331 120° Southeast 374 430 11,300 -1,000 Descending Fort Worth Center
Mon 12:12:43 PM 33.4386 -97.4583 124° Southeast 326 375 10,700 -900 Descending Fort Worth Center
Mon 12:13:43 PM 33.3719 -97.3886 139° Southeast 301 346 9,500 -1,514 Descending Fort Worth Center
Mon 12:14:30 PM 33.3667 -97.3167 95° East 280 322 8,000 -1,682 Descending Dallas / Fort Worth TRACON
Mon 12:15:30 PM 33.3500 -97.2167 101° East 284 327 6,500 -1,248 Descending Dallas / Fort Worth TRACON
Mon 12:16:35 PM 33.3333 -97.1167 101° East 279 321 5,400 -714 Descending Dallas / Fort Worth TRACON
Mon 12:17:36 PM 33.3000 -97.0333 116° Southeast 274 315 5,000 -220 Descending Dallas / Fort Worth TRACON
Mon 12:18:24 PM 33.3000 -96.9667 90° East 268 308 5,000 -421 Level Dallas / Fort Worth TRACON
Mon 12:19:30 PM 33.2667 -96.8667 112° Southeast 275 316 4,200 -458 Descending Dallas / Fort Worth TRACON
Mon 12:20:35 PM 33.2167 -96.8000 132° Southeast 261 300 4,000 -100 Descending Dallas / Fort Worth TRACON
Mon 12:21:30 PM 33.1667 -96.7500 140° Southeast 273 314 4,000  Level Dallas / Fort Worth TRACON
Mon 12:22:30 PM 33.1000 -96.7333 168° South 271 312 4,000  Level Dallas / Fort Worth TRACON
Mon 12:23:35 PM 33.0000 -96.7000 164° South 284 327 4,000 -202 Level Dallas / Fort Worth TRACON
Mon 12:24:29 PM 32.9333 -96.6833 168° South 271 312 3,600 -526 Descending Dallas / Fort Worth TRACON
Mon 12:25:29 PM 32.8667 -96.7000 192° South 244 281 3,000 -298 Descending Dallas / Fort Worth TRACON
Mon 12:26:30 PM 32.8167 -96.7167 196° South 197 227 3,000 -524 Level Dallas / Fort Worth TRACON
Mon 12:27:35 PM 32.8000 -96.7667 248° West 156 180 1,900 -800 Descending Dallas / Fort Worth TRACON
Mon 12:28:30 PM 32.8167 -96.8000 301° West 155 178 1,400 -545 Descending Dallas / Fort Worth TRACON

Login

Don't have an account? Register now (free) for customized features, flight alerts, and more!